createdAt,value
2024-05-09T00:02:25.636Z,101308.28
2024-05-09T00:07:46.894Z,101349.91
2024-05-09T00:13:08.549Z,101323.88
2024-05-09T00:18:30.553Z,101323.91
2024-05-09T00:23:53.027Z,101325.81
2024-05-09T00:29:15.263Z,101350.44
2024-05-09T00:34:36.525Z,101337.84
2024-05-09T00:39:57.885Z,101318.97
2024-05-09T00:45:19.124Z,101340.31
2024-05-09T00:50:41.662Z,101335.63
2024-05-09T00:56:05.141Z,101340.84
2024-05-09T01:01:27.733Z,101307.75
2024-05-09T01:06:49.222Z,101294.31
2024-05-09T01:12:10.707Z,101310.69
2024-05-09T01:17:32.953Z,101305.88
2024-05-09T01:22:54.812Z,101290.22
2024-05-09T01:28:16.432Z,101332.06
2024-05-09T01:33:38.660Z,101312.53
2024-05-09T01:39:00.038Z,101320.78
2024-05-09T01:44:21.378Z,101325.78
2024-05-09T01:49:43.404Z,101288.28
2024-05-09T01:55:07.151Z,101323.66
2024-05-09T02:00:37.378Z,101337.78
2024-05-09T02:06:02.416Z,101303.97
2024-05-09T02:11:23.464Z,101311.38
2024-05-09T02:16:44.779Z,101343.53
2024-05-09T02:22:05.987Z,101329.84
2024-05-09T02:27:27.215Z,101303.66
2024-05-09T02:32:49.166Z,101293.75
2024-05-09T02:38:10.813Z,101333.84
2024-05-09T02:43:32.646Z,101327.69
2024-05-09T02:48:53.825Z,101328.63
2024-05-09T02:54:14.862Z,101331.75
2024-05-09T02:59:36.197Z,101313.66
2024-05-09T03:04:57.952Z,101336.81
2024-05-09T03:10:25.403Z,101314.22
2024-05-09T03:15:50.180Z,101320.28
2024-05-09T03:21:11.575Z,101309.56
2024-05-09T03:26:33.413Z,101290.84
2024-05-09T03:31:54.816Z,101345.31
2024-05-09T03:37:16.095Z,101311.31
2024-05-09T03:42:41.634Z,101324.69
2024-05-09T03:48:03.177Z,101288.22
2024-05-09T03:53:25.574Z,101300.97
2024-05-09T03:58:46.824Z,101295.63
2024-05-09T04:04:09.517Z,101315.38
2024-05-09T04:09:31.006Z,101301.13
2024-05-09T04:14:52.373Z,101325.31
2024-05-09T04:20:24.168Z,101325.63
2024-05-09T04:25:54.684Z,101309.13
2024-05-09T04:31:15.823Z,101316.69
2024-05-09T04:36:36.976Z,101328.28
2024-05-09T04:41:58.238Z,101309.56
2024-05-09T04:47:21.015Z,101324.75
2024-05-09T04:52:42.010Z,101323.75
2024-05-09T04:58:03.998Z,101279.56
2024-05-09T05:03:25.212Z,101313.63
2024-05-09T05:08:47.244Z,101331.66
2024-05-09T05:14:08.482Z,101339.53
2024-05-09T05:19:30.630Z,101337.47
2024-05-09T05:24:52.351Z,101315.91
2024-05-09T05:30:21.101Z,101310.34
2024-05-09T05:35:47.326Z,101318.16
2024-05-09T05:41:08.817Z,101301.75
2024-05-09T05:46:31.406Z,101315.88
2024-05-09T05:51:52.757Z,101331.59
2024-05-09T05:57:15.456Z,101339.28
2024-05-09T06:02:36.919Z,101324.69
2024-05-09T06:07:58.999Z,101331.16
2024-05-09T06:13:20.604Z,101343.41
2024-05-09T06:18:42.004Z,101317.09
2024-05-09T06:24:06.157Z,101305.72
2024-05-09T06:29:27.947Z,101338.66
2024-05-09T06:34:49.199Z,101323.09
2024-05-09T06:45:33.668Z,101334.00
2024-05-09T06:50:55.301Z,101334.16
2024-05-09T06:56:16.865Z,101307.41
2024-05-09T07:01:38.395Z,101309.16
2024-05-09T07:06:59.543Z,101327.78
2024-05-09T07:12:20.926Z,101316.34
2024-05-09T07:17:43.178Z,101325.53
2024-05-09T07:23:05.239Z,101325.38
2024-05-09T07:28:26.802Z,101306.16
2024-05-09T07:33:48.096Z,101298.69
2024-05-09T07:39:09.708Z,101320.88
2024-05-09T07:44:31.271Z,101319.84
2024-05-09T07:51:32.809Z,101319.22
2024-05-09T07:55:34.024Z,101319.69
2024-05-09T08:00:56.383Z,101288.94
2024-05-09T08:06:17.650Z,101296.31
2024-05-09T08:11:40.148Z,101315.69
2024-05-09T08:17:02.464Z,101275.88
2024-05-09T08:22:23.694Z,101258.97
2024-05-09T08:27:45.414Z,101308.28
2024-05-09T08:33:07.735Z,101298.53
2024-05-09T08:38:29.704Z,101277.66
2024-05-09T08:43:51.462Z,101305.56
2024-05-09T08:49:13.679Z,101269.66
2024-05-09T08:54:35.686Z,101290.56
2024-05-09T09:00:00.445Z,101264.19
2024-05-09T09:05:23.575Z,101271.03
2024-05-09T09:10:46.541Z,101296.28
2024-05-09T09:16:08.242Z,101271.56
2024-05-09T09:21:30.314Z,101299.69
2024-05-09T09:26:52.156Z,101300.16
2024-05-09T09:32:13.667Z,101287.00
2024-05-09T09:37:35.844Z,101305.94
2024-05-09T09:42:57.760Z,101293.56
2024-05-09T09:48:20.218Z,101282.00
2024-05-09T09:53:42.702Z,101300.72
2024-05-09T09:59:07.208Z,101286.72
2024-05-09T10:04:28.360Z,101295.84
2024-05-09T10:09:50.102Z,101277.28
2024-05-09T10:15:11.579Z,101275.34
2024-05-09T10:20:45.945Z,101285.72
2024-05-09T10:26:38.716Z,101293.75
2024-05-09T10:32:00.223Z,101275.50
2024-05-09T10:37:22.230Z,101279.25
2024-05-09T10:42:43.683Z,101262.28
2024-05-09T10:48:06.073Z,101257.97
2024-05-09T10:53:27.681Z,101250.47
2024-05-09T10:58:52.057Z,101244.97
2024-05-09T11:04:14.464Z,101240.84
2024-05-09T11:09:36.529Z,101240.69
2024-05-09T11:14:58.252Z,101252.56
2024-05-09T11:20:26.726Z,101246.09
2024-05-09T11:25:52.776Z,101250.25
2024-05-09T11:31:14.509Z,101245.06
2024-05-09T11:36:36.265Z,101225.31
2024-05-09T11:41:57.825Z,101231.38
2024-05-09T11:47:21.655Z,101218.69
2024-05-09T11:52:43.021Z,101208.88
2024-05-09T11:58:04.455Z,101215.09
2024-05-09T12:03:25.858Z,101212.66
2024-05-09T12:08:47.385Z,101200.94
2024-05-09T12:14:08.974Z,101200.13
2024-05-09T12:19:30.484Z,101191.31
2024-05-09T12:24:52.240Z,101188.06
2024-05-09T12:30:20.777Z,101202.69
2024-05-09T12:35:51.104Z,101188.06
2024-05-09T12:41:12.648Z,101175.38
2024-05-09T12:46:34.007Z,101165.28
2024-05-09T12:51:55.259Z,101161.22
2024-05-09T12:57:16.733Z,101166.91
2024-05-09T13:02:38.261Z,101168.38
2024-05-09T13:08:00.697Z,101142.16
2024-05-09T13:13:21.998Z,101145.06
2024-05-09T13:18:44.423Z,101144.91
2024-05-09T13:24:06.775Z,101126.66
2024-05-09T13:29:28.258Z,101114.94
2024-05-09T13:34:49.643Z,101122.41
2024-05-09T13:40:14.230Z,101106.59
2024-05-09T13:45:36.082Z,101106.22
2024-05-09T13:50:57.872Z,101109.81
2024-05-09T13:56:19.413Z,101111.63
2024-05-09T14:01:41.441Z,101101.59
2024-05-09T14:07:03.895Z,101096.63
2024-05-09T14:12:24.984Z,101083.28
2024-05-09T14:17:46.771Z,101079.72
2024-05-09T14:23:08.380Z,101076.66
2024-05-09T14:28:29.827Z,101075.34
2024-05-09T14:33:51.382Z,101066.38
2024-05-09T14:39:12.877Z,101048.50
2024-05-09T14:44:34.044Z,101052.72
2024-05-09T14:49:55.932Z,101038.88
2024-05-09T14:55:17.026Z,101046.97
2024-05-09T15:00:45.744Z,101032.97
2024-05-09T15:06:11.354Z,101030.09
2024-05-09T15:11:32.829Z,101021.28
2024-05-09T15:16:53.823Z,101026.16
2024-05-09T15:22:16.627Z,101006.66
2024-05-09T15:27:37.899Z,101020.94
2024-05-09T15:33:00.118Z,101003.72
2024-05-09T15:38:21.751Z,100993.13
2024-05-09T15:43:42.908Z,100992.31
2024-05-09T15:49:04.458Z,100986.78
2024-05-09T15:54:26.810Z,100969.06
2024-05-09T15:59:48.280Z,100988.00
2024-05-09T16:05:10.006Z,100967.22
2024-05-09T16:10:33.249Z,100987.34
2024-05-09T16:15:56.124Z,100961.09
2024-05-09T16:21:17.434Z,100954.41
2024-05-09T16:26:39.002Z,100978.47
2024-05-09T16:32:00.492Z,100968.09
2024-05-09T16:37:24.244Z,100954.59
2024-05-09T16:42:46.669Z,100971.06
2024-05-09T16:48:09.004Z,100973.03
2024-05-09T16:53:30.305Z,100966.25
2024-05-09T16:58:51.474Z,100976.78
2024-05-09T17:04:12.944Z,100953.56
2024-05-09T17:09:34.562Z,100969.44
2024-05-09T17:14:56.672Z,100951.56
2024-05-09T17:20:28.871Z,100966.53
2024-05-09T17:25:54.716Z,100951.78
2024-05-09T17:31:15.878Z,100964.13
2024-05-09T17:36:37.181Z,100964.31
2024-05-09T17:41:58.657Z,100958.16
2024-05-09T17:47:20.458Z,100940.97
2024-05-09T17:52:42.028Z,100956.91
2024-05-09T17:58:04.752Z,100943.06
2024-05-09T18:03:27.034Z,100945.34
2024-05-09T18:08:48.427Z,100936.59
2024-05-09T18:14:09.571Z,100951.19
2024-05-09T18:19:31.198Z,100955.16
2024-05-09T18:24:53.414Z,100949.63
2024-05-09T18:30:24.124Z,100951.09
2024-05-09T18:35:52.847Z,100960.19
2024-05-09T18:41:14.469Z,100963.59
2024-05-09T18:46:36.775Z,100951.75
2024-05-09T18:51:58.310Z,100950.13
2024-05-09T18:57:19.533Z,100967.03
2024-05-09T19:02:41.035Z,100977.09
2024-05-09T19:08:02.898Z,100976.13
2024-05-09T19:13:27.452Z,100972.88
2024-05-09T19:18:51.450Z,100966.56
2024-05-09T19:24:13.380Z,100972.75
2024-05-09T19:29:35.035Z,100965.75
2024-05-09T19:34:56.281Z,100988.50
2024-05-09T19:40:24.790Z,100983.28
2024-05-09T19:45:52.172Z,100972.72
2024-05-09T19:51:14.036Z,100974.69
2024-05-09T19:56:35.357Z,100990.28
2024-05-09T20:01:58.390Z,100985.09
2024-05-09T20:07:20.022Z,100974.03
2024-05-09T20:12:41.570Z,100973.06
2024-05-09T20:18:03.023Z,100976.81
2024-05-09T20:23:25.563Z,100965.06
2024-05-09T20:28:46.914Z,100973.38
2024-05-09T20:34:08.277Z,100963.97
2024-05-09T20:39:29.463Z,100955.50
2024-05-09T20:44:51.267Z,100963.13
2024-05-09T20:50:23.038Z,100960.19
2024-05-09T20:55:50.131Z,100938.94
2024-05-09T21:01:11.421Z,100942.63
2024-05-09T21:06:32.806Z,100966.88
2024-05-09T21:11:53.977Z,100952.41
2024-05-09T21:17:15.266Z,100948.31
2024-05-09T21:22:38.014Z,100958.91
2024-05-09T21:27:59.706Z,100946.03
2024-05-09T21:33:21.305Z,100967.63
2024-05-09T21:38:43.507Z,100942.91
2024-05-09T21:44:04.868Z,100956.25
2024-05-09T21:49:26.749Z,100952.03
2024-05-09T21:54:47.975Z,100968.13
2024-05-09T22:00:20.325Z,100942.53
2024-05-09T22:05:46.377Z,100946.63
2024-05-09T22:11:07.933Z,100964.34
2024-05-09T22:16:29.271Z,100959.16
2024-05-09T22:21:50.987Z,100951.94
2024-05-09T22:27:12.326Z,100941.41
2024-05-09T22:32:33.708Z,100944.81
2024-05-09T22:37:55.516Z,100944.50
2024-05-09T22:43:19.370Z,100952.78
2024-05-09T22:48:40.938Z,100934.91
2024-05-09T22:54:04.270Z,100936.34
2024-05-09T22:59:25.651Z,100931.16
2024-05-09T23:04:47.343Z,100934.72
2024-05-09T23:10:13.429Z,100925.16
2024-05-09T23:15:39.261Z,100923.53
2024-05-09T23:21:01.374Z,100932.59
2024-05-09T23:26:22.954Z,100910.13
2024-05-09T23:31:44.243Z,100938.94
2024-05-09T23:37:05.522Z,100919.72
2024-05-09T23:42:26.798Z,100918.25
2024-05-09T23:47:48.064Z,100931.13
2024-05-09T23:53:10.367Z,100935.31
2024-05-09T23:58:32.092Z,100922.13
